sensor_id;sensor_type;location;lat;lon;timestamp;P1;durP1;ratioP1;P2;durP2;ratioP2
63394;SDS011;49531;-34.520;150.798;2022-12-18T00:02:15;1.67;;;0.60;;
63394;SDS011;49531;-34.520;150.798;2022-12-18T00:04:42;1.58;;;0.50;;
63394;SDS011;49531;-34.520;150.798;2022-12-18T00:07:10;2.00;;;0.73;;
63394;SDS011;49531;-34.520;150.798;2022-12-18T00:09:37;1.50;;;0.60;;
63394;SDS011;49531;-34.520;150.798;2022-12-18T00:12:04;2.15;;;0.70;;
63394;SDS011;49531;-34.520;150.798;2022-12-18T00:14:32;3.63;;;0.70;;
63394;SDS011;49531;-34.520;150.798;2022-12-18T00:16:59;1.75;;;0.65;;
63394;SDS011;49531;-34.520;150.798;2022-12-18T00:19:27;0.93;;;0.60;;
63394;SDS011;49531;-34.520;150.798;2022-12-18T00:21:54;3.22;;;0.60;;
63394;SDS011;49531;-34.520;150.798;2022-12-18T00:24:21;1.73;;;0.65;;
63394;SDS011;49531;-34.520;150.798;2022-12-18T00:26:48;2.95;;;0.60;;
63394;SDS011;49531;-34.520;150.798;2022-12-18T00:29:15;3.97;;;0.90;;
63394;SDS011;49531;-34.520;150.798;2022-12-18T00:31:42;3.78;;;0.80;;
63394;SDS011;49531;-34.520;150.798;2022-12-18T00:34:10;3.65;;;0.80;;
63394;SDS011;49531;-34.520;150.798;2022-12-18T00:36:38;2.85;;;0.70;;
63394;SDS011;49531;-34.520;150.798;2022-12-18T00:39:06;3.85;;;0.98;;
63394;SDS011;49531;-34.520;150.798;2022-12-18T00:41:33;4.25;;;0.95;;
63394;SDS011;49531;-34.520;150.798;2022-12-18T00:44:20;2.47;;;0.90;;
63394;SDS011;49531;-34.520;150.798;2022-12-18T00:46:48;4.28;;;0.95;;
63394;SDS011;49531;-34.520;150.798;2022-12-18T00:49:16;4.00;;;1.00;;
63394;SDS011;49531;-34.520;150.798;2022-12-18T00:51:44;2.58;;;1.08;;
63394;SDS011;49531;-34.520;150.798;2022-12-18T00:54:11;3.20;;;0.80;;
63394;SDS011;49531;-34.520;150.798;2022-12-18T00:56:39;3.47;;;0.93;;
63394;SDS011;49531;-34.520;150.798;2022-12-18T00:59:06;2.22;;;0.88;;
63394;SDS011;49531;-34.520;150.798;2022-12-18T01:01:33;4.28;;;0.90;;
63394;SDS011;49531;-34.520;150.798;2022-12-18T01:04:01;3.28;;;0.77;;
63394;SDS011;49531;-34.520;150.798;2022-12-18T01:06:28;5.50;;;1.10;;
63394;SDS011;49531;-34.520;150.798;2022-12-18T01:08:56;4.22;;;1.10;;
63394;SDS011;49531;-34.520;150.798;2022-12-18T01:11:23;5.20;;;0.95;;
63394;SDS011;49531;-34.520;150.798;2022-12-18T01:13:52;5.68;;;1.00;;
63394;SDS011;49531;-34.520;150.798;2022-12-18T01:16:20;6.60;;;1.20;;
63394;SDS011;49531;-34.520;150.798;2022-12-18T01:18:50;6.13;;;1.35;;
63394;SDS011;49531;-34.520;150.798;2022-12-18T01:21:20;4.07;;;0.98;;
63394;SDS011;49531;-34.520;150.798;2022-12-18T01:23:51;5.90;;;1.20;;
63394;SDS011;49531;-34.520;150.798;2022-12-18T01:26:20;4.93;;;1.10;;
63394;SDS011;49531;-34.520;150.798;2022-12-18T01:28:47;6.70;;;1.00;;
63394;SDS011;49531;-34.520;150.798;2022-12-18T01:31:16;4.00;;;1.10;;
63394;SDS011;49531;-34.520;150.798;2022-12-18T01:33:46;4.32;;;0.80;;
63394;SDS011;49531;-34.520;150.798;2022-12-18T01:36:16;4.22;;;1.00;;
63394;SDS011;49531;-34.520;150.798;2022-12-18T01:38:46;5.78;;;0.90;;
63394;SDS011;49531;-34.520;150.798;2022-12-18T01:41:15;4.20;;;1.02;;
63394;SDS011;49531;-34.520;150.798;2022-12-18T01:43:49;5.72;;;1.15;;
63394;SDS011;49531;-34.520;150.798;2022-12-18T01:46:23;3.53;;;0.82;;
63394;SDS011;49531;-34.520;150.798;2022-12-18T01:48:53;2.88;;;0.73;;
63394;SDS011;49531;-34.520;150.798;2022-12-18T01:51:24;3.45;;;0.80;;
63394;SDS011;49531;-34.520;150.798;2022-12-18T01:53:53;6.63;;;1.00;;
63394;SDS011;49531;-34.520;150.798;2022-12-18T01:56:21;2.40;;;0.70;;
63394;SDS011;49531;-34.520;150.798;2022-12-18T01:59:02;2.45;;;0.68;;
63394;SDS011;49531;-34.520;150.798;2022-12-18T02:01:32;4.95;;;0.85;;
63394;SDS011;49531;-34.520;150.798;2022-12-18T02:04:17;3.67;;;0.63;;
63394;SDS011;49531;-34.520;150.798;2022-12-18T02:06:46;1.90;;;0.70;;
63394;SDS011;49531;-34.520;150.798;2022-12-18T02:09:26;4.53;;;0.85;;
63394;SDS011;49531;-34.520;150.798;2022-12-18T02:12:04;4.07;;;1.00;;
63394;SDS011;49531;-34.520;150.798;2022-12-18T02:14:44;2.88;;;0.68;;
63394;SDS011;49531;-34.520;150.798;2022-12-18T02:17:28;5.13;;;0.95;;
63394;SDS011;49531;-34.520;150.798;2022-12-18T02:20:14;2.75;;;0.80;;
63394;SDS011;49531;-34.520;150.798;2022-12-18T02:22:57;3.65;;;0.70;;
63394;SDS011;49531;-34.520;150.798;2022-12-18T02:25:38;2.55;;;0.60;;
63394;SDS011;49531;-34.520;150.798;2022-12-18T02:28:28;2.70;;;0.80;;
63394;SDS011;49531;-34.520;150.798;2022-12-18T02:31:00;2.25;;;0.70;;
63394;SDS011;49531;-34.520;150.798;2022-12-18T02:33:31;2.95;;;0.90;;
63394;SDS011;49531;-34.520;150.798;2022-12-18T02:36:01;3.15;;;0.93;;
63394;SDS011;49531;-34.520;150.798;2022-12-18T02:38:30;4.78;;;0.88;;
63394;SDS011;49531;-34.520;150.798;2022-12-18T02:40:59;6.18;;;0.98;;
63394;SDS011;49531;-34.520;150.798;2022-12-18T02:43:28;5.30;;;1.00;;
63394;SDS011;49531;-34.520;150.798;2022-12-18T02:45:57;6.15;;;1.05;;
63394;SDS011;49531;-34.520;150.798;2022-12-18T02:48:28;9.60;;;1.25;;
63394;SDS011;49531;-34.520;150.798;2022-12-18T02:51:23;5.82;;;1.00;;
63394;SDS011;49531;-34.520;150.798;2022-12-18T02:53:57;6.97;;;0.93;;
63394;SDS011;49531;-34.520;150.798;2022-12-18T02:56:35;6.32;;;0.90;;
63394;SDS011;49531;-34.520;150.798;2022-12-18T02:59:09;4.80;;;0.90;;
63394;SDS011;49531;-34.520;150.798;2022-12-18T03:01:49;5.32;;;0.88;;
63394;SDS011;49531;-34.520;150.798;2022-12-18T03:04:27;3.58;;;0.93;;
63394;SDS011;49531;-34.520;150.798;2022-12-18T03:07:04;6.30;;;1.00;;
63394;SDS011;49531;-34.520;150.798;2022-12-18T03:09:39;3.30;;;0.70;;
63394;SDS011;49531;-34.520;150.798;2022-12-18T03:12:20;4.43;;;0.80;;
63394;SDS011;49531;-34.520;150.798;2022-12-18T03:14:58;5.95;;;1.17;;
63394;SDS011;49531;-34.520;150.798;2022-12-18T03:17:31;5.22;;;0.80;;
63394;SDS011;49531;-34.520;150.798;2022-12-18T03:20:04;4.32;;;1.00;;
63394;SDS011;49531;-34.520;150.798;2022-12-18T03:22:37;7.07;;;0.90;;
63394;SDS011;49531;-34.520;150.798;2022-12-18T03:25:07;5.07;;;1.15;;
63394;SDS011;49531;-34.520;150.798;2022-12-18T03:27:40;6.70;;;1.35;;
63394;SDS011;49531;-34.520;150.798;2022-12-18T03:32:56;7.50;;;1.10;;
63394;SDS011;49531;-34.520;150.798;2022-12-18T03:35:32;6.55;;;1.33;;
63394;SDS011;49531;-34.520;150.798;2022-12-18T03:38:02;3.45;;;0.82;;
63394;SDS011;49531;-34.520;150.798;2022-12-18T03:40:32;5.60;;;1.35;;
63394;SDS011;49531;-34.520;150.798;2022-12-18T03:43:24;10.45;;;1.17;;
63394;SDS011;49531;-34.520;150.798;2022-12-18T03:46:08;4.88;;;1.20;;
63394;SDS011;49531;-34.520;150.798;2022-12-18T03:48:58;4.93;;;1.30;;
63394;SDS011;49531;-34.520;150.798;2022-12-18T03:51:43;6.95;;;1.08;;
63394;SDS011;49531;-34.520;150.798;2022-12-18T03:54:19;6.50;;;1.10;;
63394;SDS011;49531;-34.520;150.798;2022-12-18T03:56:49;6.10;;;0.93;;
63394;SDS011;49531;-34.520;150.798;2022-12-18T03:59:24;6.28;;;0.90;;
63394;SDS011;49531;-34.520;150.798;2022-12-18T04:01:53;5.10;;;0.80;;
63394;SDS011;49531;-34.520;150.798;2022-12-18T04:04:23;3.60;;;0.90;;
63394;SDS011;49531;-34.520;150.798;2022-12-18T04:06:51;3.45;;;0.80;;
63394;SDS011;49531;-34.520;150.798;2022-12-18T04:09:20;6.47;;;1.02;;
63394;SDS011;49531;-34.520;150.798;2022-12-18T04:11:48;5.55;;;0.90;;
63394;SDS011;49531;-34.520;150.798;2022-12-18T04:14:15;6.05;;;1.00;;
63394;SDS011;49531;-34.520;150.798;2022-12-18T04:16:42;7.22;;;1.08;;
63394;SDS011;49531;-34.520;150.798;2022-12-18T04:19:09;4.55;;;1.00;;
63394;SDS011;49531;-34.520;150.798;2022-12-18T04:21:36;4.95;;;0.82;;
63394;SDS011;49531;-34.520;150.798;2022-12-18T04:24:04;5.60;;;1.00;;
63394;SDS011;49531;-34.520;150.798;2022-12-18T04:26:31;7.47;;;1.10;;
63394;SDS011;49531;-34.520;150.798;2022-12-18T04:28:58;5.85;;;0.90;;
63394;SDS011;49531;-34.520;150.798;2022-12-18T04:31:25;5.72;;;0.98;;
63394;SDS011;49531;-34.520;150.798;2022-12-18T04:33:52;5.65;;;0.82;;
63394;SDS011;49531;-34.520;150.798;2022-12-18T04:36:20;3.90;;;0.80;;
63394;SDS011;49531;-34.520;150.798;2022-12-18T04:38:47;3.78;;;0.80;;
63394;SDS011;49531;-34.520;150.798;2022-12-18T04:41:14;5.70;;;1.00;;
63394;SDS011;49531;-34.520;150.798;2022-12-18T04:43:41;4.75;;;0.73;;
63394;SDS011;49531;-34.520;150.798;2022-12-18T04:46:08;2.72;;;0.70;;
63394;SDS011;49531;-34.520;150.798;2022-12-18T04:48:36;4.88;;;0.82;;
63394;SDS011;49531;-34.520;150.798;2022-12-18T04:51:04;3.05;;;0.90;;
63394;SDS011;49531;-34.520;150.798;2022-12-18T04:53:33;6.07;;;0.77;;
63394;SDS011;49531;-34.520;150.798;2022-12-18T04:56:02;6.75;;;1.10;;
63394;SDS011;49531;-34.520;150.798;2022-12-18T04:58:34;3.40;;;1.05;;
63394;SDS011;49531;-34.520;150.798;2022-12-18T05:01:02;5.30;;;0.90;;
63394;SDS011;49531;-34.520;150.798;2022-12-18T05:03:30;5.47;;;0.90;;
63394;SDS011;49531;-34.520;150.798;2022-12-18T05:05:57;4.65;;;1.20;;
63394;SDS011;49531;-34.520;150.798;2022-12-18T05:08:24;8.15;;;1.13;;
63394;SDS011;49531;-34.520;150.798;2022-12-18T05:10:59;4.40;;;0.80;;
63394;SDS011;49531;-34.520;150.798;2022-12-18T05:13:27;3.17;;;0.77;;
63394;SDS011;49531;-34.520;150.798;2022-12-18T05:15:56;4.95;;;0.90;;
63394;SDS011;49531;-34.520;150.798;2022-12-18T05:18:23;10.07;;;1.30;;
63394;SDS011;49531;-34.520;150.798;2022-12-18T05:20:51;5.60;;;1.23;;
63394;SDS011;49531;-34.520;150.798;2022-12-18T05:23:19;5.82;;;1.17;;
63394;SDS011;49531;-34.520;150.798;2022-12-18T05:25:53;3.33;;;0.80;;
63394;SDS011;49531;-34.520;150.798;2022-12-18T05:28:21;4.65;;;0.90;;
63394;SDS011;49531;-34.520;150.798;2022-12-18T05:30:51;2.90;;;0.93;;
63394;SDS011;49531;-34.520;150.798;2022-12-18T05:33:20;5.90;;;1.10;;
63394;SDS011;49531;-34.520;150.798;2022-12-18T05:35:50;5.00;;;1.10;;
63394;SDS011;49531;-34.520;150.798;2022-12-18T05:38:18;5.13;;;0.88;;
63394;SDS011;49531;-34.520;150.798;2022-12-18T05:40:47;3.65;;;0.93;;
63394;SDS011;49531;-34.520;150.798;2022-12-18T05:43:15;5.13;;;0.98;;
63394;SDS011;49531;-34.520;150.798;2022-12-18T05:45:43;4.25;;;1.10;;
63394;SDS011;49531;-34.520;150.798;2022-12-18T05:48:10;15.50;;;2.53;;
63394;SDS011;49531;-34.520;150.798;2022-12-18T05:50:38;16.88;;;4.10;;
63394;SDS011;49531;-34.520;150.798;2022-12-18T05:53:08;22.52;;;5.30;;
63394;SDS011;49531;-34.520;150.798;2022-12-18T05:55:38;18.58;;;5.15;;
63394;SDS011;49531;-34.520;150.798;2022-12-18T05:58:07;18.35;;;4.30;;
63394;SDS011;49531;-34.520;150.798;2022-12-18T06:00:35;23.50;;;4.90;;
63394;SDS011;49531;-34.520;150.798;2022-12-18T06:03:06;15.45;;;4.20;;
63394;SDS011;49531;-34.520;150.798;2022-12-18T06:05:34;17.70;;;4.95;;
63394;SDS011;49531;-34.520;150.798;2022-12-18T06:08:03;19.48;;;4.32;;
63394;SDS011;49531;-34.520;150.798;2022-12-18T06:10:31;16.23;;;4.10;;
63394;SDS011;49531;-34.520;150.798;2022-12-18T06:12:59;22.08;;;4.88;;
63394;SDS011;49531;-34.520;150.798;2022-12-18T06:15:26;21.27;;;4.93;;
63394;SDS011;49531;-34.520;150.798;2022-12-18T06:17:53;18.73;;;4.70;;
63394;SDS011;49531;-34.520;150.798;2022-12-18T06:20:20;17.05;;;4.32;;
63394;SDS011;49531;-34.520;150.798;2022-12-18T06:22:48;19.83;;;4.82;;
63394;SDS011;49531;-34.520;150.798;2022-12-18T06:25:15;15.65;;;4.35;;
63394;SDS011;49531;-34.520;150.798;2022-12-18T06:27:43;19.50;;;4.45;;
63394;SDS011;49531;-34.520;150.798;2022-12-18T06:30:10;16.67;;;4.30;;
63394;SDS011;49531;-34.520;150.798;2022-12-18T06:32:38;11.80;;;3.50;;
63394;SDS011;49531;-34.520;150.798;2022-12-18T06:35:05;9.65;;;3.17;;
63394;SDS011;49531;-34.520;150.798;2022-12-18T06:37:33;11.02;;;3.35;;
63394;SDS011;49531;-34.520;150.798;2022-12-18T06:40:00;15.13;;;3.92;;
63394;SDS011;49531;-34.520;150.798;2022-12-18T06:42:28;13.27;;;3.67;;
63394;SDS011;49531;-34.520;150.798;2022-12-18T06:44:55;9.40;;;3.30;;
63394;SDS011;49531;-34.520;150.798;2022-12-18T06:47:22;12.40;;;3.30;;
63394;SDS011;49531;-34.520;150.798;2022-12-18T06:49:49;11.63;;;3.38;;
63394;SDS011;49531;-34.520;150.798;2022-12-18T06:52:16;11.30;;;3.20;;
63394;SDS011;49531;-34.520;150.798;2022-12-18T06:54:44;10.93;;;2.92;;
63394;SDS011;49531;-34.520;150.798;2022-12-18T06:57:12;9.70;;;3.20;;
63394;SDS011;49531;-34.520;150.798;2022-12-18T06:59:39;13.25;;;2.97;;
63394;SDS011;49531;-34.520;150.798;2022-12-18T07:02:09;7.60;;;2.90;;
63394;SDS011;49531;-34.520;150.798;2022-12-18T07:04:38;10.07;;;2.85;;
63394;SDS011;49531;-34.520;150.798;2022-12-18T07:07:05;7.78;;;2.63;;
63394;SDS011;49531;-34.520;150.798;2022-12-18T07:09:32;12.25;;;3.05;;
63394;SDS011;49531;-34.520;150.798;2022-12-18T07:11:59;10.40;;;2.97;;
63394;SDS011;49531;-34.520;150.798;2022-12-18T07:14:26;10.90;;;2.95;;
63394;SDS011;49531;-34.520;150.798;2022-12-18T07:16:54;12.20;;;2.90;;
63394;SDS011;49531;-34.520;150.798;2022-12-18T07:19:21;8.68;;;2.47;;
63394;SDS011;49531;-34.520;150.798;2022-12-18T07:21:49;8.60;;;2.50;;
63394;SDS011;49531;-34.520;150.798;2022-12-18T07:24:17;8.73;;;2.53;;
63394;SDS011;49531;-34.520;150.798;2022-12-18T07:26:46;10.35;;;2.67;;
63394;SDS011;49531;-34.520;150.798;2022-12-18T07:29:13;9.07;;;2.80;;
63394;SDS011;49531;-34.520;150.798;2022-12-18T07:31:40;6.85;;;2.28;;
63394;SDS011;49531;-34.520;150.798;2022-12-18T07:34:11;6.70;;;2.30;;
63394;SDS011;49531;-34.520;150.798;2022-12-18T07:36:39;8.25;;;2.20;;
63394;SDS011;49531;-34.520;150.798;2022-12-18T07:39:06;7.63;;;2.40;;
63394;SDS011;49531;-34.520;150.798;2022-12-18T07:41:33;6.93;;;1.90;;
63394;SDS011;49531;-34.520;150.798;2022-12-18T07:44:01;7.85;;;2.13;;
63394;SDS011;49531;-34.520;150.798;2022-12-18T07:46:28;8.35;;;1.83;;
63394;SDS011;49531;-34.520;150.798;2022-12-18T07:48:55;5.85;;;1.70;;
63394;SDS011;49531;-34.520;150.798;2022-12-18T07:51:22;6.72;;;1.70;;
63394;SDS011;49531;-34.520;150.798;2022-12-18T07:53:49;4.75;;;1.65;;
63394;SDS011;49531;-34.520;150.798;2022-12-18T07:56:16;4.05;;;1.50;;
63394;SDS011;49531;-34.520;150.798;2022-12-18T07:58:44;5.97;;;1.67;;
63394;SDS011;49531;-34.520;150.798;2022-12-18T08:01:12;4.97;;;1.60;;
63394;SDS011;49531;-34.520;150.798;2022-12-18T08:03:40;3.35;;;1.40;;
63394;SDS011;49531;-34.520;150.798;2022-12-18T08:06:08;5.63;;;1.60;;
63394;SDS011;49531;-34.520;150.798;2022-12-18T08:08:35;4.38;;;1.40;;
63394;SDS011;49531;-34.520;150.798;2022-12-18T08:11:03;3.47;;;1.33;;
63394;SDS011;49531;-34.520;150.798;2022-12-18T08:13:30;7.68;;;1.77;;
63394;SDS011;49531;-34.520;150.798;2022-12-18T08:15:58;4.43;;;1.38;;
63394;SDS011;49531;-34.520;150.798;2022-12-18T08:18:28;5.30;;;1.50;;
63394;SDS011;49531;-34.520;150.798;2022-12-18T08:20:55;6.05;;;1.50;;
63394;SDS011;49531;-34.520;150.798;2022-12-18T08:23:22;5.70;;;1.40;;
63394;SDS011;49531;-34.520;150.798;2022-12-18T08:25:49;4.25;;;1.20;;
63394;SDS011;49531;-34.520;150.798;2022-12-18T08:28:17;4.78;;;1.40;;
63394;SDS011;49531;-34.520;150.798;2022-12-18T08:30:44;5.57;;;1.48;;
63394;SDS011;49531;-34.520;150.798;2022-12-18T08:33:11;3.30;;;1.08;;
63394;SDS011;49531;-34.520;150.798;2022-12-18T08:35:38;4.13;;;1.15;;
63394;SDS011;49531;-34.520;150.798;2022-12-18T08:38:05;5.65;;;1.33;;
63394;SDS011;49531;-34.520;150.798;2022-12-18T08:40:33;4.78;;;1.20;;
63394;SDS011;49531;-34.520;150.798;2022-12-18T08:43:00;2.83;;;1.02;;
63394;SDS011;49531;-34.520;150.798;2022-12-18T08:45:38;3.22;;;1.15;;
63394;SDS011;49531;-34.520;150.798;2022-12-18T08:48:06;4.63;;;1.00;;
63394;SDS011;49531;-34.520;150.798;2022-12-18T08:50:33;3.17;;;1.00;;
63394;SDS011;49531;-34.520;150.798;2022-12-18T08:53:00;4.65;;;1.10;;
63394;SDS011;49531;-34.520;150.798;2022-12-18T08:55:27;5.13;;;1.00;;
63394;SDS011;49531;-34.520;150.798;2022-12-18T08:57:55;3.58;;;1.05;;
63394;SDS011;49531;-34.520;150.798;2022-12-18T09:00:23;2.20;;;0.90;;
63394;SDS011;49531;-34.520;150.798;2022-12-18T09:02:50;3.38;;;0.95;;
63394;SDS011;49531;-34.520;150.798;2022-12-18T09:05:17;4.78;;;1.17;;
63394;SDS011;49531;-34.520;150.798;2022-12-18T09:07:44;3.10;;;1.10;;
63394;SDS011;49531;-34.520;150.798;2022-12-18T09:10:11;2.78;;;1.00;;
63394;SDS011;49531;-34.520;150.798;2022-12-18T09:12:38;4.20;;;1.20;;
63394;SDS011;49531;-34.520;150.798;2022-12-18T09:15:05;2.63;;;0.80;;
63394;SDS011;49531;-34.520;150.798;2022-12-18T09:17:32;2.28;;;0.90;;
63394;SDS011;49531;-34.520;150.798;2022-12-18T09:19:59;2.50;;;0.95;;
63394;SDS011;49531;-34.520;150.798;2022-12-18T09:22:26;4.13;;;0.80;;
63394;SDS011;49531;-34.520;150.798;2022-12-18T09:24:54;3.58;;;1.00;;
63394;SDS011;49531;-34.520;150.798;2022-12-18T09:27:21;2.70;;;0.80;;
63394;SDS011;49531;-34.520;150.798;2022-12-18T09:29:48;2.15;;;0.90;;
63394;SDS011;49531;-34.520;150.798;2022-12-18T09:32:15;2.72;;;0.90;;
63394;SDS011;49531;-34.520;150.798;2022-12-18T09:34:42;3.42;;;1.00;;
63394;SDS011;49531;-34.520;150.798;2022-12-18T09:37:09;1.23;;;0.70;;
63394;SDS011;49531;-34.520;150.798;2022-12-18T09:39:36;4.07;;;0.88;;
63394;SDS011;49531;-34.520;150.798;2022-12-18T09:42:04;2.80;;;0.88;;
63394;SDS011;49531;-34.520;150.798;2022-12-18T09:44:35;3.50;;;0.95;;
63394;SDS011;49531;-34.520;150.798;2022-12-18T09:47:08;3.38;;;1.02;;
63394;SDS011;49531;-34.520;150.798;2022-12-18T09:49:43;3.22;;;0.90;;
63394;SDS011;49531;-34.520;150.798;2022-12-18T09:54:47;3.85;;;0.90;;
63394;SDS011;49531;-34.520;150.798;2022-12-18T09:57:20;2.92;;;0.88;;
63394;SDS011;49531;-34.520;150.798;2022-12-18T09:59:52;3.08;;;0.90;;
63394;SDS011;49531;-34.520;150.798;2022-12-18T10:02:24;4.85;;;0.90;;
63394;SDS011;49531;-34.520;150.798;2022-12-18T10:05:02;4.55;;;0.95;;
63394;SDS011;49531;-34.520;150.798;2022-12-18T10:07:36;2.08;;;0.80;;
63394;SDS011;49531;-34.520;150.798;2022-12-18T10:13:09;2.42;;;0.95;;
63394;SDS011;49531;-34.520;150.798;2022-12-18T10:15:53;3.58;;;0.90;;
63394;SDS011;49531;-34.520;150.798;2022-12-18T10:18:36;5.82;;;1.20;;
63394;SDS011;49531;-34.520;150.798;2022-12-18T10:21:21;3.60;;;1.10;;
63394;SDS011;49531;-34.520;150.798;2022-12-18T10:26:59;3.35;;;0.88;;
63394;SDS011;49531;-34.520;150.798;2022-12-18T10:29:43;4.13;;;1.20;;
63394;SDS011;49531;-34.520;150.798;2022-12-18T10:32:13;2.67;;;0.90;;
63394;SDS011;49531;-34.520;150.798;2022-12-18T10:34:45;4.45;;;1.10;;
63394;SDS011;49531;-34.520;150.798;2022-12-18T10:37:16;5.22;;;1.20;;
63394;SDS011;49531;-34.520;150.798;2022-12-18T10:39:46;4.82;;;1.20;;
63394;SDS011;49531;-34.520;150.798;2022-12-18T10:42:25;4.20;;;1.00;;
63394;SDS011;49531;-34.520;150.798;2022-12-18T10:45:00;4.80;;;1.00;;
63394;SDS011;49531;-34.520;150.798;2022-12-18T10:47:32;4.75;;;1.05;;
63394;SDS011;49531;-34.520;150.798;2022-12-18T10:50:00;3.38;;;1.00;;
63394;SDS011;49531;-34.520;150.798;2022-12-18T10:52:28;5.38;;;1.30;;
63394;SDS011;49531;-34.520;150.798;2022-12-18T10:54:57;3.88;;;1.10;;
63394;SDS011;49531;-34.520;150.798;2022-12-18T10:57:33;4.10;;;1.00;;
63394;SDS011;49531;-34.520;150.798;2022-12-18T11:02:48;3.03;;;0.90;;
63394;SDS011;49531;-34.520;150.798;2022-12-18T11:05:27;3.72;;;1.02;;
63394;SDS011;49531;-34.520;150.798;2022-12-18T11:07:56;4.18;;;0.90;;
63394;SDS011;49531;-34.520;150.798;2022-12-18T11:10:26;4.50;;;1.02;;
63394;SDS011;49531;-34.520;150.798;2022-12-18T11:15:43;2.88;;;1.00;;
63394;SDS011;49531;-34.520;150.798;2022-12-18T11:18:19;2.45;;;0.90;;
63394;SDS011;49531;-34.520;150.798;2022-12-18T11:20:54;4.35;;;1.10;;
63394;SDS011;49531;-34.520;150.798;2022-12-18T11:23:23;2.40;;;0.82;;
63394;SDS011;49531;-34.520;150.798;2022-12-18T11:25:56;4.03;;;1.00;;
63394;SDS011;49531;-34.520;150.798;2022-12-18T11:28:33;3.92;;;1.00;;
63394;SDS011;49531;-34.520;150.798;2022-12-18T11:31:24;5.53;;;1.20;;
63394;SDS011;49531;-34.520;150.798;2022-12-18T11:33:59;3.97;;;0.90;;
63394;SDS011;49531;-34.520;150.798;2022-12-18T11:36:33;5.80;;;1.10;;
63394;SDS011;49531;-34.520;150.798;2022-12-18T11:39:14;4.10;;;1.02;;
63394;SDS011;49531;-34.520;150.798;2022-12-18T11:41:52;3.55;;;1.10;;
63394;SDS011;49531;-34.520;150.798;2022-12-18T11:47:30;3.70;;;1.20;;
63394;SDS011;49531;-34.520;150.798;2022-12-18T11:50:13;5.43;;;1.10;;
63394;SDS011;49531;-34.520;150.798;2022-12-18T11:52:44;5.40;;;1.08;;
63394;SDS011;49531;-34.520;150.798;2022-12-18T11:55:13;3.80;;;1.05;;
63394;SDS011;49531;-34.520;150.798;2022-12-18T11:57:46;2.90;;;0.90;;
63394;SDS011;49531;-34.520;150.798;2022-12-18T12:00:36;5.97;;;1.00;;
63394;SDS011;49531;-34.520;150.798;2022-12-18T12:03:18;4.57;;;1.30;;
63394;SDS011;49531;-34.520;150.798;2022-12-18T12:05:59;4.15;;;1.25;;
63394;SDS011;49531;-34.520;150.798;2022-12-18T12:08:45;4.63;;;1.08;;
63394;SDS011;49531;-34.520;150.798;2022-12-18T12:14:27;5.10;;;1.17;;
63394;SDS011;49531;-34.520;150.798;2022-12-18T12:17:10;2.65;;;0.90;;
63394;SDS011;49531;-34.520;150.798;2022-12-18T12:19:58;5.07;;;1.15;;
63394;SDS011;49531;-34.520;150.798;2022-12-18T12:30:59;5.03;;;1.50;;
63394;SDS011;49531;-34.520;150.798;2022-12-18T12:33:57;4.60;;;1.40;;
63394;SDS011;49531;-34.520;150.798;2022-12-18T12:36:42;6.93;;;1.50;;
63394;SDS011;49531;-34.520;150.798;2022-12-18T12:39:24;6.68;;;1.40;;
63394;SDS011;49531;-34.520;150.798;2022-12-18T12:41:56;6.53;;;1.52;;
63394;SDS011;49531;-34.520;150.798;2022-12-18T12:44:43;9.27;;;1.60;;
63394;SDS011;49531;-34.520;150.798;2022-12-18T12:47:24;4.68;;;1.33;;
63394;SDS011;49531;-34.520;150.798;2022-12-18T12:49:54;5.45;;;1.55;;
63394;SDS011;49531;-34.520;150.798;2022-12-18T12:52:32;6.00;;;1.40;;
63394;SDS011;49531;-34.520;150.798;2022-12-18T12:55:07;4.88;;;1.52;;
63394;SDS011;49531;-34.520;150.798;2022-12-18T12:57:45;8.15;;;1.67;;
63394;SDS011;49531;-34.520;150.798;2022-12-18T13:00:36;8.73;;;1.77;;
63394;SDS011;49531;-34.520;150.798;2022-12-18T13:03:26;8.27;;;1.63;;
63394;SDS011;49531;-34.520;150.798;2022-12-18T13:06:11;6.22;;;1.65;;
63394;SDS011;49531;-34.520;150.798;2022-12-18T13:08:58;7.60;;;1.58;;
63394;SDS011;49531;-34.520;150.798;2022-12-18T13:14:20;5.97;;;1.67;;
63394;SDS011;49531;-34.520;150.798;2022-12-18T13:16:50;8.27;;;1.58;;
63394;SDS011;49531;-34.520;150.798;2022-12-18T13:19:21;7.13;;;1.65;;
63394;SDS011;49531;-34.520;150.798;2022-12-18T13:21:53;6.72;;;1.83;;
63394;SDS011;49531;-34.520;150.798;2022-12-18T13:24:26;7.07;;;1.73;;
63394;SDS011;49531;-34.520;150.798;2022-12-18T13:26:56;10.35;;;1.70;;
63394;SDS011;49531;-34.520;150.798;2022-12-18T13:32:20;5.80;;;1.52;;
63394;SDS011;49531;-34.520;150.798;2022-12-18T13:43:27;9.45;;;1.95;;
63394;SDS011;49531;-34.520;150.798;2022-12-18T13:45:59;6.03;;;1.77;;
63394;SDS011;49531;-34.520;150.798;2022-12-18T13:51:00;7.32;;;1.80;;
63394;SDS011;49531;-34.520;150.798;2022-12-18T13:53:33;9.77;;;1.88;;
63394;SDS011;49531;-34.520;150.798;2022-12-18T13:56:04;8.85;;;1.92;;
63394;SDS011;49531;-34.520;150.798;2022-12-18T13:58:32;9.25;;;1.85;;
63394;SDS011;49531;-34.520;150.798;2022-12-18T14:00:59;6.25;;;1.60;;
63394;SDS011;49531;-34.520;150.798;2022-12-18T14:03:28;8.32;;;1.70;;
63394;SDS011;49531;-34.520;150.798;2022-12-18T14:06:00;7.40;;;2.00;;
63394;SDS011;49531;-34.520;150.798;2022-12-18T14:08:33;9.82;;;1.92;;
63394;SDS011;49531;-34.520;150.798;2022-12-18T14:11:04;8.35;;;1.88;;
63394;SDS011;49531;-34.520;150.798;2022-12-18T14:13:35;7.28;;;1.83;;
63394;SDS011;49531;-34.520;150.798;2022-12-18T14:16:05;11.23;;;2.03;;
63394;SDS011;49531;-34.520;150.798;2022-12-18T14:18:38;9.48;;;2.00;;
63394;SDS011;49531;-34.520;150.798;2022-12-18T14:21:23;10.85;;;1.95;;
63394;SDS011;49531;-34.520;150.798;2022-12-18T14:24:03;9.93;;;2.00;;
63394;SDS011;49531;-34.520;150.798;2022-12-18T14:26:40;8.05;;;1.95;;
63394;SDS011;49531;-34.520;150.798;2022-12-18T14:29:18;8.43;;;1.98;;
63394;SDS011;49531;-34.520;150.798;2022-12-18T14:32:04;8.55;;;1.88;;
63394;SDS011;49531;-34.520;150.798;2022-12-18T14:34:41;9.18;;;2.10;;
63394;SDS011;49531;-34.520;150.798;2022-12-18T14:37:11;10.40;;;1.80;;
63394;SDS011;49531;-34.520;150.798;2022-12-18T14:39:40;7.25;;;1.70;;
63394;SDS011;49531;-34.520;150.798;2022-12-18T14:42:22;8.38;;;1.90;;
63394;SDS011;49531;-34.520;150.798;2022-12-18T14:45:31;7.80;;;1.88;;
63394;SDS011;49531;-34.520;150.798;2022-12-18T14:47:51;6.88;;;1.65;;
63394;SDS011;49531;-34.520;150.798;2022-12-18T14:50:18;7.90;;;1.83;;
63394;SDS011;49531;-34.520;150.798;2022-12-18T14:52:46;7.28;;;1.80;;
63394;SDS011;49531;-34.520;150.798;2022-12-18T14:55:15;8.02;;;1.80;;
63394;SDS011;49531;-34.520;150.798;2022-12-18T14:57:43;7.32;;;1.70;;
63394;SDS011;49531;-34.520;150.798;2022-12-18T15:00:15;8.38;;;1.80;;
63394;SDS011;49531;-34.520;150.798;2022-12-18T15:02:45;8.45;;;1.70;;
63394;SDS011;49531;-34.520;150.798;2022-12-18T15:05:17;7.65;;;1.80;;
63394;SDS011;49531;-34.520;150.798;2022-12-18T15:07:47;9.70;;;1.77;;
63394;SDS011;49531;-34.520;150.798;2022-12-18T15:10:19;11.60;;;2.20;;
63394;SDS011;49531;-34.520;150.798;2022-12-18T15:12:49;7.85;;;1.65;;
63394;SDS011;49531;-34.520;150.798;2022-12-18T15:15:44;7.82;;;1.77;;
63394;SDS011;49531;-34.520;150.798;2022-12-18T15:18:13;7.60;;;1.70;;
63394;SDS011;49531;-34.520;150.798;2022-12-18T15:20:45;8.60;;;1.60;;
63394;SDS011;49531;-34.520;150.798;2022-12-18T15:23:17;7.45;;;1.73;;